sensor_id;sensor_type;location;lat;lon;timestamp;temperature;humidity
20998;DHT22;10657;51.276;6.390;2023-05-10T00:00:44;13.50;99.90
20998;DHT22;10657;51.276;6.390;2023-05-10T00:03:11;13.40;99.90
20998;DHT22;10657;51.276;6.390;2023-05-10T00:05:38;13.40;99.90
20998;DHT22;10657;51.276;6.390;2023-05-10T00:08:05;13.40;99.90
20998;DHT22;10657;51.276;6.390;2023-05-10T00:10:32;13.40;99.90
20998;DHT22;10657;51.276;6.390;2023-05-10T00:12:58;13.50;99.90
20998;DHT22;10657;51.276;6.390;2023-05-10T00:15:25;13.40;99.90
20998;DHT22;10657;51.276;6.390;2023-05-10T00:17:52;13.40;99.90
20998;DHT22;10657;51.276;6.390;2023-05-10T00:20:18;13.50;99.90
20998;DHT22;10657;51.276;6.390;2023-05-10T00:22:45;13.40;99.90
20998;DHT22;10657;51.276;6.390;2023-05-10T00:25:12;13.40;99.90
20998;DHT22;10657;51.276;6.390;2023-05-10T00:27:38;13.40;99.90
20998;DHT22;10657;51.276;6.390;2023-05-10T00:30:05;13.30;99.90
20998;DHT22;10657;51.276;6.390;2023-05-10T00:32:33;13.20;99.90
20998;DHT22;10657;51.276;6.390;2023-05-10T00:34:59;13.30;99.90
20998;DHT22;10657;51.276;6.390;2023-05-10T00:37:26;13.30;99.90
20998;DHT22;10657;51.276;6.390;2023-05-10T00:39:53;13.40;99.90
20998;DHT22;10657;51.276;6.390;2023-05-10T00:42:19;13.40;99.90
20998;DHT22;10657;51.276;6.390;2023-05-10T00:44:46;13.30;99.90
20998;DHT22;10657;51.276;6.390;2023-05-10T00:47:13;13.20;99.90
20998;DHT22;10657;51.276;6.390;2023-05-10T00:49:40;13.10;99.90
20998;DHT22;10657;51.276;6.390;2023-05-10T00:52:08;13.20;99.90
20998;DHT22;10657;51.276;6.390;2023-05-10T00:54:35;13.20;99.90
20998;DHT22;10657;51.276;6.390;2023-05-10T00:57:02;13.20;99.90
20998;DHT22;10657;51.276;6.390;2023-05-10T00:59:29;13.20;99.90
20998;DHT22;10657;51.276;6.390;2023-05-10T01:01:57;13.30;99.90
20998;DHT22;10657;51.276;6.390;2023-05-10T01:04:24;13.30;99.90
20998;DHT22;10657;51.276;6.390;2023-05-10T01:06:52;13.30;99.90
20998;DHT22;10657;51.276;6.390;2023-05-10T01:09:20;13.30;99.90
20998;DHT22;10657;51.276;6.390;2023-05-10T01:11:48;13.30;99.90
20998;DHT22;10657;51.276;6.390;2023-05-10T01:14:18;13.30;99.90
20998;DHT22;10657;51.276;6.390;2023-05-10T01:16:47;13.20;99.90
20998;DHT22;10657;51.276;6.390;2023-05-10T01:19:25;13.20;99.90
20998;DHT22;10657;51.276;6.390;2023-05-10T01:24:49;13.20;99.90
20998;DHT22;10657;51.276;6.390;2023-05-10T01:35:30;13.20;99.90
20998;DHT22;10657;51.276;6.390;2023-05-10T01:38:17;13.30;99.90
20998;DHT22;10657;51.276;6.390;2023-05-10T01:40:57;13.30;99.90
20998;DHT22;10657;51.276;6.390;2023-05-10T01:43:30;13.30;99.90
20998;DHT22;10657;51.276;6.390;2023-05-10T01:46:05;13.40;99.90
20998;DHT22;10657;51.276;6.390;2023-05-10T01:48:47;13.40;99.90
20998;DHT22;10657;51.276;6.390;2023-05-10T01:51:24;13.30;99.90
20998;DHT22;10657;51.276;6.390;2023-05-10T01:54:00;13.30;99.90
20998;DHT22;10657;51.276;6.390;2023-05-10T01:56:30;13.40;99.90
20998;DHT22;10657;51.276;6.390;2023-05-10T01:58:58;13.40;99.90
20998;DHT22;10657;51.276;6.390;2023-05-10T02:01:26;13.40;99.90
20998;DHT22;10657;51.276;6.390;2023-05-10T02:03:54;13.30;99.90
20998;DHT22;10657;51.276;6.390;2023-05-10T02:06:22;13.30;99.90
20998;DHT22;10657;51.276;6.390;2023-05-10T02:08:51;13.30;99.90
20998;DHT22;10657;51.276;6.390;2023-05-10T02:11:19;13.30;99.90
20998;DHT22;10657;51.276;6.390;2023-05-10T02:13:49;13.30;99.90
20998;DHT22;10657;51.276;6.390;2023-05-10T02:16:17;13.30;99.90
20998;DHT22;10657;51.276;6.390;2023-05-10T02:18:45;13.30;99.90
20998;DHT22;10657;51.276;6.390;2023-05-10T02:21:13;13.30;99.90
20998;DHT22;10657;51.276;6.390;2023-05-10T02:23:40;13.20;99.90
20998;DHT22;10657;51.276;6.390;2023-05-10T02:26:08;13.20;99.90
20998;DHT22;10657;51.276;6.390;2023-05-10T02:28:35;13.20;99.90
20998;DHT22;10657;51.276;6.390;2023-05-10T02:31:05;13.20;99.90
20998;DHT22;10657;51.276;6.390;2023-05-10T02:33:33;13.20;99.90
20998;DHT22;10657;51.276;6.390;2023-05-10T02:36:02;13.20;99.90
20998;DHT22;10657;51.276;6.390;2023-05-10T02:38:31;13.20;99.90
20998;DHT22;10657;51.276;6.390;2023-05-10T02:40:59;13.20;99.90
20998;DHT22;10657;51.276;6.390;2023-05-10T02:43:28;13.20;99.90
20998;DHT22;10657;51.276;6.390;2023-05-10T02:45:56;13.10;99.90
20998;DHT22;10657;51.276;6.390;2023-05-10T02:48:23;13.10;99.90
20998;DHT22;10657;51.276;6.390;2023-05-10T02:50:52;13.20;99.90
20998;DHT22;10657;51.276;6.390;2023-05-10T02:53:33;13.20;99.90
20998;DHT22;10657;51.276;6.390;2023-05-10T02:56:05;13.30;99.90
20998;DHT22;10657;51.276;6.390;2023-05-10T02:58:33;13.20;99.90
20998;DHT22;10657;51.276;6.390;2023-05-10T03:01:00;13.30;99.90
20998;DHT22;10657;51.276;6.390;2023-05-10T03:03:27;13.30;99.90
20998;DHT22;10657;51.276;6.390;2023-05-10T03:05:53;13.40;99.90
20998;DHT22;10657;51.276;6.390;2023-05-10T03:08:22;13.40;99.90
20998;DHT22;10657;51.276;6.390;2023-05-10T03:16:12;13.40;99.90
20998;DHT22;10657;51.276;6.390;2023-05-10T03:18:46;13.40;99.90
20998;DHT22;10657;51.276;6.390;2023-05-10T03:21:16;13.40;99.90
20998;DHT22;10657;51.276;6.390;2023-05-10T03:23:56;13.40;99.90
20998;DHT22;10657;51.276;6.390;2023-05-10T03:26:26;13.40;99.90
20998;DHT22;10657;51.276;6.390;2023-05-10T03:28:54;13.40;99.90
20998;DHT22;10657;51.276;6.390;2023-05-10T03:31:21;13.30;99.90
20998;DHT22;10657;51.276;6.390;2023-05-10T03:33:50;13.40;99.90
20998;DHT22;10657;51.276;6.390;2023-05-10T03:36:17;13.40;99.90
20998;DHT22;10657;51.276;6.390;2023-05-10T03:38:44;13.20;99.90
20998;DHT22;10657;51.276;6.390;2023-05-10T03:41:11;13.30;99.90
20998;DHT22;10657;51.276;6.390;2023-05-10T03:43:37;13.30;99.90
20998;DHT22;10657;51.276;6.390;2023-05-10T03:46:05;13.20;99.90
20998;DHT22;10657;51.276;6.390;2023-05-10T03:48:32;13.30;99.90
20998;DHT22;10657;51.276;6.390;2023-05-10T03:50:59;13.20;99.90
20998;DHT22;10657;51.276;6.390;2023-05-10T03:53:26;13.30;99.90
20998;DHT22;10657;51.276;6.390;2023-05-10T03:55:53;13.30;99.90
20998;DHT22;10657;51.276;6.390;2023-05-10T03:58:20;13.30;99.90
20998;DHT22;10657;51.276;6.390;2023-05-10T04:00:46;13.30;99.90
20998;DHT22;10657;51.276;6.390;2023-05-10T04:03:13;13.30;99.90
20998;DHT22;10657;51.276;6.390;2023-05-10T04:05:40;13.40;99.90
20998;DHT22;10657;51.276;6.390;2023-05-10T04:08:07;13.40;99.90
20998;DHT22;10657;51.276;6.390;2023-05-10T04:10:34;13.40;99.90
20998;DHT22;10657;51.276;6.390;2023-05-10T04:13:00;13.30;99.90
20998;DHT22;10657;51.276;6.390;2023-05-10T04:15:27;13.40;99.90
20998;DHT22;10657;51.276;6.390;2023-05-10T04:17:54;13.40;99.90
20998;DHT22;10657;51.276;6.390;2023-05-10T04:20:20;13.40;99.90
20998;DHT22;10657;51.276;6.390;2023-05-10T04:22:47;13.40;99.90
20998;DHT22;10657;51.276;6.390;2023-05-10T04:25:14;13.40;99.90
20998;DHT22;10657;51.276;6.390;2023-05-10T04:27:40;13.40;99.90
20998;DHT22;10657;51.276;6.390;2023-05-10T04:30:07;13.40;99.90
20998;DHT22;10657;51.276;6.390;2023-05-10T04:32:34;13.40;99.90
20998;DHT22;10657;51.276;6.390;2023-05-10T04:35:01;13.30;99.90
20998;DHT22;10657;51.276;6.390;2023-05-10T04:37:30;13.30;99.90
20998;DHT22;10657;51.276;6.390;2023-05-10T04:39:56;13.40;99.90
20998;DHT22;10657;51.276;6.390;2023-05-10T04:42:23;13.30;99.90
20998;DHT22;10657;51.276;6.390;2023-05-10T04:44:49;13.30;99.90
20998;DHT22;10657;51.276;6.390;2023-05-10T04:47:16;13.20;99.90
20998;DHT22;10657;51.276;6.390;2023-05-10T04:49:43;13.30;99.90
20998;DHT22;10657;51.276;6.390;2023-05-10T04:52:10;13.30;99.90
20998;DHT22;10657;51.276;6.390;2023-05-10T04:54:37;13.30;99.90
20998;DHT22;10657;51.276;6.390;2023-05-10T04:57:04;13.30;99.90
20998;DHT22;10657;51.276;6.390;2023-05-10T04:59:30;13.30;99.90
20998;DHT22;10657;51.276;6.390;2023-05-10T05:01:57;13.30;99.90
20998;DHT22;10657;51.276;6.390;2023-05-10T05:04:24;13.30;99.90
20998;DHT22;10657;51.276;6.390;2023-05-10T05:06:51;13.20;99.90
20998;DHT22;10657;51.276;6.390;2023-05-10T05:09:19;13.20;99.90
20998;DHT22;10657;51.276;6.390;2023-05-10T05:11:46;13.20;99.90
20998;DHT22;10657;51.276;6.390;2023-05-10T05:14:12;13.20;99.90
20998;DHT22;10657;51.276;6.390;2023-05-10T05:16:39;13.10;99.90
20998;DHT22;10657;51.276;6.390;2023-05-10T05:19:06;13.10;99.90
20998;DHT22;10657;51.276;6.390;2023-05-10T05:21:33;13.10;99.90
20998;DHT22;10657;51.276;6.390;2023-05-10T05:23:59;13.20;99.90
20998;DHT22;10657;51.276;6.390;2023-05-10T05:26:27;13.10;99.90
20998;DHT22;10657;51.276;6.390;2023-05-10T05:28:53;13.20;99.90
20998;DHT22;10657;51.276;6.390;2023-05-10T05:31:21;13.20;99.90
20998;DHT22;10657;51.276;6.390;2023-05-10T05:33:48;13.20;99.90
20998;DHT22;10657;51.276;6.390;2023-05-10T05:36:14;13.10;99.90
20998;DHT22;10657;51.276;6.390;2023-05-10T05:38:41;13.10;99.90
20998;DHT22;10657;51.276;6.390;2023-05-10T05:41:07;13.10;99.90
20998;DHT22;10657;51.276;6.390;2023-05-10T05:43:34;13.20;99.90
20998;DHT22;10657;51.276;6.390;2023-05-10T05:46:04;13.20;99.90
20998;DHT22;10657;51.276;6.390;2023-05-10T05:48:31;13.10;99.90
20998;DHT22;10657;51.276;6.390;2023-05-10T05:50:57;13.10;99.90
20998;DHT22;10657;51.276;6.390;2023-05-10T05:53:24;13.10;99.90
20998;DHT22;10657;51.276;6.390;2023-05-10T05:55:52;13.20;99.90
20998;DHT22;10657;51.276;6.390;2023-05-10T05:58:21;13.20;99.90
20998;DHT22;10657;51.276;6.390;2023-05-10T06:00:47;13.20;99.90
20998;DHT22;10657;51.276;6.390;2023-05-10T06:03:14;13.20;99.90
20998;DHT22;10657;51.276;6.390;2023-05-10T06:05:42;13.20;99.90
20998;DHT22;10657;51.276;6.390;2023-05-10T06:08:08;13.20;99.90
20998;DHT22;10657;51.276;6.390;2023-05-10T06:10:35;13.30;99.90
20998;DHT22;10657;51.276;6.390;2023-05-10T06:13:02;13.30;99.90
20998;DHT22;10657;51.276;6.390;2023-05-10T06:15:29;13.40;99.90
20998;DHT22;10657;51.276;6.390;2023-05-10T06:17:55;13.30;99.90
20998;DHT22;10657;51.276;6.390;2023-05-10T06:20:22;13.40;99.90
20998;DHT22;10657;51.276;6.390;2023-05-10T06:22:49;13.40;99.90
20998;DHT22;10657;51.276;6.390;2023-05-10T06:25:16;13.40;99.90
20998;DHT22;10657;51.276;6.390;2023-05-10T06:27:44;13.40;99.90
20998;DHT22;10657;51.276;6.390;2023-05-10T06:30:16;13.30;99.90
20998;DHT22;10657;51.276;6.390;2023-05-10T06:32:43;13.30;99.90
20998;DHT22;10657;51.276;6.390;2023-05-10T06:35:11;13.30;99.90
20998;DHT22;10657;51.276;6.390;2023-05-10T06:37:38;13.20;99.90
20998;DHT22;10657;51.276;6.390;2023-05-10T06:40:06;13.20;99.90
20998;DHT22;10657;51.276;6.390;2023-05-10T06:42:32;13.20;99.90
20998;DHT22;10657;51.276;6.390;2023-05-10T06:44:59;13.10;99.90
20998;DHT22;10657;51.276;6.390;2023-05-10T06:47:26;13.10;99.90
20998;DHT22;10657;51.276;6.390;2023-05-10T06:49:53;13.20;99.90
20998;DHT22;10657;51.276;6.390;2023-05-10T06:52:20;13.20;99.90
20998;DHT22;10657;51.276;6.390;2023-05-10T06:54:46;13.20;99.90
20998;DHT22;10657;51.276;6.390;2023-05-10T06:57:14;13.20;99.90
20998;DHT22;10657;51.276;6.390;2023-05-10T06:59:55;13.20;99.90
20998;DHT22;10657;51.276;6.390;2023-05-10T07:02:22;13.30;99.90
20998;DHT22;10657;51.276;6.390;2023-05-10T07:04:49;13.40;99.90
20998;DHT22;10657;51.276;6.390;2023-05-10T07:07:16;13.40;99.90
20998;DHT22;10657;51.276;6.390;2023-05-10T07:09:43;13.40;99.90
20998;DHT22;10657;51.276;6.390;2023-05-10T07:12:10;13.40;99.90
20998;DHT22;10657;51.276;6.390;2023-05-10T07:14:40;13.50;99.90
20998;DHT22;10657;51.276;6.390;2023-05-10T07:17:07;13.60;99.90
20998;DHT22;10657;51.276;6.390;2023-05-10T07:19:33;13.50;99.90
20998;DHT22;10657;51.276;6.390;2023-05-10T07:22:00;13.50;99.90
20998;DHT22;10657;51.276;6.390;2023-05-10T07:24:27;13.50;99.90
20998;DHT22;10657;51.276;6.390;2023-05-10T07:26:54;13.50;99.90
20998;DHT22;10657;51.276;6.390;2023-05-10T07:29:20;13.50;99.90
20998;DHT22;10657;51.276;6.390;2023-05-10T07:31:47;13.50;99.90
20998;DHT22;10657;51.276;6.390;2023-05-10T07:34:13;13.50;99.90
20998;DHT22;10657;51.276;6.390;2023-05-10T07:36:41;13.60;99.90
20998;DHT22;10657;51.276;6.390;2023-05-10T07:39:07;13.60;99.90
20998;DHT22;10657;51.276;6.390;2023-05-10T07:41:34;13.50;99.90
20998;DHT22;10657;51.276;6.390;2023-05-10T07:44:01;13.50;99.90
20998;DHT22;10657;51.276;6.390;2023-05-10T07:46:28;13.60;99.90
20998;DHT22;10657;51.276;6.390;2023-05-10T07:48:55;13.70;99.90
20998;DHT22;10657;51.276;6.390;2023-05-10T07:51:21;13.60;99.90
20998;DHT22;10657;51.276;6.390;2023-05-10T07:53:48;13.60;99.90
20998;DHT22;10657;51.276;6.390;2023-05-10T07:56:25;13.60;99.90
20998;DHT22;10657;51.276;6.390;2023-05-10T07:58:54;13.60;99.90
20998;DHT22;10657;51.276;6.390;2023-05-10T08:01:21;13.60;99.90
20998;DHT22;10657;51.276;6.390;2023-05-10T08:03:48;13.60;99.90
20998;DHT22;10657;51.276;6.390;2023-05-10T08:06:17;13.70;99.90
20998;DHT22;10657;51.276;6.390;2023-05-10T08:08:45;13.70;99.90
20998;DHT22;10657;51.276;6.390;2023-05-10T08:11:16;13.70;99.90
20998;DHT22;10657;51.276;6.390;2023-05-10T08:13:44;13.70;99.90
20998;DHT22;10657;51.276;6.390;2023-05-10T08:16:11;13.90;99.90
20998;DHT22;10657;51.276;6.390;2023-05-10T08:18:38;14.00;99.90
20998;DHT22;10657;51.276;6.390;2023-05-10T08:21:05;14.00;99.90
20998;DHT22;10657;51.276;6.390;2023-05-10T08:23:32;14.00;99.90
20998;DHT22;10657;51.276;6.390;2023-05-10T08:25:59;14.10;99.90
20998;DHT22;10657;51.276;6.390;2023-05-10T08:28:26;14.20;99.90
20998;DHT22;10657;51.276;6.390;2023-05-10T08:30:53;14.00;99.90
20998;DHT22;10657;51.276;6.390;2023-05-10T08:33:20;14.00;99.90
20998;DHT22;10657;51.276;6.390;2023-05-10T08:35:46;14.00;99.90
20998;DHT22;10657;51.276;6.390;2023-05-10T08:38:13;13.90;99.90
20998;DHT22;10657;51.276;6.390;2023-05-10T08:40:42;13.80;99.90
20998;DHT22;10657;51.276;6.390;2023-05-10T08:43:11;13.90;99.90
20998;DHT22;10657;51.276;6.390;2023-05-10T08:45:43;13.90;99.90
20998;DHT22;10657;51.276;6.390;2023-05-10T08:48:10;14.00;99.90
20998;DHT22;10657;51.276;6.390;2023-05-10T08:50:39;14.00;99.90
20998;DHT22;10657;51.276;6.390;2023-05-10T08:53:09;14.00;99.90
20998;DHT22;10657;51.276;6.390;2023-05-10T08:55:37;14.00;99.90
20998;DHT22;10657;51.276;6.390;2023-05-10T08:58:06;13.90;99.90
20998;DHT22;10657;51.276;6.390;2023-05-10T09:00:33;13.90;99.90
20998;DHT22;10657;51.276;6.390;2023-05-10T09:03:01;13.90;99.90
20998;DHT22;10657;51.276;6.390;2023-05-10T09:05:28;13.90;99.90
20998;DHT22;10657;51.276;6.390;2023-05-10T09:07:54;13.80;99.90
20998;DHT22;10657;51.276;6.390;2023-05-10T09:10:22;14.00;99.90
20998;DHT22;10657;51.276;6.390;2023-05-10T09:12:50;14.00;99.90
20998;DHT22;10657;51.276;6.390;2023-05-10T09:15:17;14.00;99.90
20998;DHT22;10657;51.276;6.390;2023-05-10T09:17:46;13.90;99.90
20998;DHT22;10657;51.276;6.390;2023-05-10T09:20:13;13.90;99.90
20998;DHT22;10657;51.276;6.390;2023-05-10T09:22:40;13.90;99.90
20998;DHT22;10657;51.276;6.390;2023-05-10T09:27:36;13.90;99.90
20998;DHT22;10657;51.276;6.390;2023-05-10T09:30:03;13.90;99.90
20998;DHT22;10657;51.276;6.390;2023-05-10T09:32:42;13.90;99.90
20998;DHT22;10657;51.276;6.390;2023-05-10T09:35:20;13.80;99.90
20998;DHT22;10657;51.276;6.390;2023-05-10T09:37:49;13.90;99.90
20998;DHT22;10657;51.276;6.390;2023-05-10T09:40:18;13.90;99.90
20998;DHT22;10657;51.276;6.390;2023-05-10T09:43:10;13.90;99.90
20998;DHT22;10657;51.276;6.390;2023-05-10T09:45:37;14.00;99.90
20998;DHT22;10657;51.276;6.390;2023-05-10T09:48:05;14.10;99.90
20998;DHT22;10657;51.276;6.390;2023-05-10T09:50:32;14.10;99.90
20998;DHT22;10657;51.276;6.390;2023-05-10T09:53:02;14.10;99.90
20998;DHT22;10657;51.276;6.390;2023-05-10T09:58:05;14.20;99.90
20998;DHT22;10657;51.276;6.390;2023-05-10T10:00:38;14.30;99.90
20998;DHT22;10657;51.276;6.390;2023-05-10T10:03:05;14.40;99.90
20998;DHT22;10657;51.276;6.390;2023-05-10T10:05:35;14.40;99.90
20998;DHT22;10657;51.276;6.390;2023-05-10T10:08:04;14.50;99.90
20998;DHT22;10657;51.276;6.390;2023-05-10T10:10:31;14.50;99.90
20998;DHT22;10657;51.276;6.390;2023-05-10T10:12:59;14.50;99.90
20998;DHT22;10657;51.276;6.390;2023-05-10T10:15:26;14.50;99.90
20998;DHT22;10657;51.276;6.390;2023-05-10T10:17:53;14.50;99.90
20998;DHT22;10657;51.276;6.390;2023-05-10T10:20:22;14.50;99.90
20998;DHT22;10657;51.276;6.390;2023-05-10T10:22:49;14.50;99.90
20998;DHT22;10657;51.276;6.390;2023-05-10T10:25:18;14.60;99.90
20998;DHT22;10657;51.276;6.390;2023-05-10T10:33:30;14.30;99.90
20998;DHT22;10657;51.276;6.390;2023-05-10T10:36:02;14.20;99.90
20998;DHT22;10657;51.276;6.390;2023-05-10T10:41:33;14.10;99.90
20998;DHT22;10657;51.276;6.390;2023-05-10T10:57:23;14.50;99.90
20998;DHT22;10657;51.276;6.390;2023-05-10T10:59:50;14.50;99.90
20998;DHT22;10657;51.276;6.390;2023-05-10T11:07:55;14.50;99.90
20998;DHT22;10657;51.276;6.390;2023-05-10T11:10:23;14.50;99.90
20998;DHT22;10657;51.276;6.390;2023-05-10T11:13:12;14.50;99.90
20998;DHT22;10657;51.276;6.390;2023-05-10T11:15:40;14.40;99.90
20998;DHT22;10657;51.276;6.390;2023-05-10T11:18:23;14.40;99.90
20998;DHT22;10657;51.276;6.390;2023-05-10T11:20:57;14.40;99.90
20998;DHT22;10657;51.276;6.390;2023-05-10T11:23:52;14.40;99.90
20998;DHT22;10657;51.276;6.390;2023-05-10T11:26:24;14.50;99.90
20998;DHT22;10657;51.276;6.390;2023-05-10T11:28:53;14.60;99.90
20998;DHT22;10657;51.276;6.390;2023-05-10T11:31:24;14.80;99.90
20998;DHT22;10657;51.276;6.390;2023-05-10T11:33:57;14.80;99.90
20998;DHT22;10657;51.276;6.390;2023-05-10T11:36:32;14.70;99.90
20998;DHT22;10657;51.276;6.390;2023-05-10T11:38:59;14.80;99.90
20998;DHT22;10657;51.276;6.390;2023-05-10T11:41:28;14.90;99.90
20998;DHT22;10657;51.276;6.390;2023-05-10T11:43:56;15.00;99.90
20998;DHT22;10657;51.276;6.390;2023-05-10T11:46:26;15.00;99.90
20998;DHT22;10657;51.276;6.390;2023-05-10T11:48:56;15.10;99.90
20998;DHT22;10657;51.276;6.390;2023-05-10T11:51:24;15.30;99.90
20998;DHT22;10657;51.276;6.390;2023-05-10T11:53:53;15.40;99.90
20998;DHT22;10657;51.276;6.390;2023-05-10T11:56:20;15.40;99.90
20998;DHT22;10657;51.276;6.390;2023-05-10T11:58:53;15.40;99.90
20998;DHT22;10657;51.276;6.390;2023-05-10T12:01:21;15.40;99.90
20998;DHT22;10657;51.276;6.390;2023-05-10T12:03:49;15.40;99.90
20998;DHT22;10657;51.276;6.390;2023-05-10T12:06:18;15.40;99.90
20998;DHT22;10657;51.276;6.390;2023-05-10T12:08:47;15.30;99.90
20998;DHT22;10657;51.276;6.390;2023-05-10T12:11:14;15.40;99.90
20998;DHT22;10657;51.276;6.390;2023-05-10T12:13:43;15.40;99.90
20998;DHT22;10657;51.276;6.390;2023-05-10T12:16:17;15.40;99.90
20998;DHT22;10657;51.276;6.390;2023-05-10T12:18:45;15.50;99.90
20998;DHT22;10657;51.276;6.390;2023-05-10T12:21:15;15.50;99.90
20998;DHT22;10657;51.276;6.390;2023-05-10T12:23:42;15.60;99.90
20998;DHT22;10657;51.276;6.390;2023-05-10T12:26:09;15.80;99.90
20998;DHT22;10657;51.276;6.390;2023-05-10T12:28:37;15.90;99.90
20998;DHT22;10657;51.276;6.390;2023-05-10T12:31:06;15.80;99.90
20998;DHT22;10657;51.276;6.390;2023-05-10T12:33:41;15.90;99.90
20998;DHT22;10657;51.276;6.390;2023-05-10T12:36:12;16.10;99.90
20998;DHT22;10657;51.276;6.390;2023-05-10T12:38:41;16.70;99.90
20998;DHT22;10657;51.276;6.390;2023-05-10T12:41:16;17.00;99.90
20998;DHT22;10657;51.276;6.390;2023-05-10T12:43:43;17.10;99.90
20998;DHT22;10657;51.276;6.390;2023-05-10T12:46:11;17.40;99.90
20998;DHT22;10657;51.276;6.390;2023-05-10T12:48:40;17.30;99.90
20998;DHT22;10657;51.276;6.390;2023-05-10T12:51:07;17.70;99.90
20998;DHT22;10657;51.276;6.390;2023-05-10T12:53:39;18.00;99.90
20998;DHT22;10657;51.276;6.390;2023-05-10T12:56:10;17.90;99.90
20998;DHT22;10657;51.276;6.390;2023-05-10T12:58:36;17.90;99.90
20998;DHT22;10657;51.276;6.390;2023-05-10T13:01:04;17.80;99.90
20998;DHT22;10657;51.276;6.390;2023-05-10T13:03:31;17.50;99.90
20998;DHT22;10657;51.276;6.390;2023-05-10T13:05:58;17.50;99.90
20998;DHT22;10657;51.276;6.390;2023-05-10T13:08:24;17.50;99.90
20998;DHT22;10657;51.276;6.390;2023-05-10T13:10:51;17.30;99.90
20998;DHT22;10657;51.276;6.390;2023-05-10T13:13:18;17.40;99.90
20998;DHT22;10657;51.276;6.390;2023-05-10T13:15:44;17.40;99.90
20998;DHT22;10657;51.276;6.390;2023-05-10T13:18:11;17.30;99.90
20998;DHT22;10657;51.276;6.390;2023-05-10T13:20:38;17.20;99.90
20998;DHT22;10657;51.276;6.390;2023-05-10T13:23:05;17.20;99.90
20998;DHT22;10657;51.276;6.390;2023-05-10T13:25:31;17.20;99.90
20998;DHT22;10657;51.276;6.390;2023-05-10T13:27:58;17.10;99.90
20998;DHT22;10657;51.276;6.390;2023-05-10T13:30:25;17.10;99.90
20998;DHT22;10657;51.276;6.390;2023-05-10T13:32:51;17.20;99.90
20998;DHT22;10657;51.276;6.390;2023-05-10T13:35:18;17.20;99.90
20998;DHT22;10657;51.276;6.390;2023-05-10T13:37:44;17.30;99.90
20998;DHT22;10657;51.276;6.390;2023-05-10T13:40:11;17.50;99.90
20998;DHT22;10657;51.276;6.390;2023-05-10T13:42:38;17.40;99.90
20998;DHT22;10657;51.276;6.390;2023-05-10T13:45:05;17.60;99.90
20998;DHT22;10657;51.276;6.390;2023-05-10T13:47:32;17.60;99.90
20998;DHT22;10657;51.276;6.390;2023-05-10T13:49:59;17.80;99.90
20998;DHT22;10657;51.276;6.390;2023-05-10T13:52:26;17.80;99.90
20998;DHT22;10657;51.276;6.390;2023-05-10T13:54:52;18.00;99.90
20998;DHT22;10657;51.276;6.390;2023-05-10T13:57:21;18.00;99.90
20998;DHT22;10657;51.276;6.390;2023-05-10T13:59:49;18.00;99.90
20998;DHT22;10657;51.276;6.390;2023-05-10T14:02:16;17.80;99.90
20998;DHT22;10657;51.276;6.390;2023-05-10T14:04:43;17.80;99.90
20998;DHT22;10657;51.276;6.390;2023-05-10T14:07:09;17.80;99.90
20998;DHT22;10657;51.276;6.390;2023-05-10T14:09:36;17.80;99.90
20998;DHT22;10657;51.276;6.390;2023-05-10T14:12:03;17.70;99.90
20998;DHT22;10657;51.276;6.390;2023-05-10T14:14:30;17.60;99.90
20998;DHT22;10657;51.276;6.390;2023-05-10T14:16:56;17.60;99.90
20998;DHT22;10657;51.276;6.390;2023-05-10T14:19:23;17.70;99.90
20998;DHT22;10657;51.276;6.390;2023-05-10T14:21:49;17.50;99.90
20998;DHT22;10657;51.276;6.390;2023-05-10T14:24:18;17.30;99.90
20998;DHT22;10657;51.276;6.390;2023-05-10T14:26:44;17.20;99.90
20998;DHT22;10657;51.276;6.390;2023-05-10T14:29:11;17.20;99.90
20998;DHT22;10657;51.276;6.390;2023-05-10T14:31:38;17.30;99.90
20998;DHT22;10657;51.276;6.390;2023-05-10T14:34:05;17.00;99.90
20998;DHT22;10657;51.276;6.390;2023-05-10T14:36:32;17.10;99.90
20998;DHT22;10657;51.276;6.390;2023-05-10T14:38:59;17.00;99.90
20998;DHT22;10657;51.276;6.390;2023-05-10T14:41:25;17.10;99.90
20998;DHT22;10657;51.276;6.390;2023-05-10T14:43:52;17.00;99.90
20998;DHT22;10657;51.276;6.390;2023-05-10T14:46:19;17.10;99.90
20998;DHT22;10657;51.276;6.390;2023-05-10T14:48:46;17.10;99.90
20998;DHT22;10657;51.276;6.390;2023-05-10T14:51:13;17.20;99.90
20998;DHT22;10657;51.276;6.390;2023-05-10T14:53:39;17.20;99.90
20998;DHT22;10657;51.276;6.390;2023-05-10T14:56:06;17.20;99.90
20998;DHT22;10657;51.276;6.390;2023-05-10T14:58:33;17.10;99.90
20998;DHT22;10657;51.276;6.390;2023-05-10T15:01:00;17.10;99.90
20998;DHT22;10657;51.276;6.390;2023-05-10T15:03:27;17.20;99.90
20998;DHT22;10657;51.276;6.390;2023-05-10T15:05:55;17.10;99.90
20998;DHT22;10657;51.276;6.390;2023-05-10T15:08:24;17.00;99.90
20998;DHT22;10657;51.276;6.390;2023-05-10T15:10:54;16.90;99.90
20998;DHT22;10657;51.276;6.390;2023-05-10T15:13:22;16.60;99.90
20998;DHT22;10657;51.276;6.390;2023-05-10T15:15:48;16.50;99.90
20998;DHT22;10657;51.276;6.390;2023-05-10T15:18:15;16.40;99.90
20998;DHT22;10657;51.276;6.390;2023-05-10T15:20:42;16.30;99.90
20998;DHT22;10657;51.276;6.390;2023-05-10T15:23:08;16.00;99.90
20998;DHT22;10657;51.276;6.390;2023-05-10T15:25:35;15.90;99.90
20998;DHT22;10657;51.276;6.390;2023-05-10T15:28:04;15.90;99.90
20998;DHT22;10657;51.276;6.390;2023-05-10T15:30:31;15.90;99.90
20998;DHT22;10657;51.276;6.390;2023-05-10T15:32:57;15.70;99.90
20998;DHT22;10657;51.276;6.390;2023-05-10T15:35:26;15.60;99.90
20998;DHT22;10657;51.276;6.390;2023-05-10T15:37:52;15.70;99.90
20998;DHT22;10657;51.276;6.390;2023-05-10T15:40:19;15.50;99.90
20998;DHT22;10657;51.276;6.390;2023-05-10T15:42:46;15.60;99.90
20998;DHT22;10657;51.276;6.390;2023-05-10T15:45:13;15.60;99.90
20998;DHT22;10657;51.276;6.390;2023-05-10T15:47:39;15.60;99.90
20998;DHT22;10657;51.276;6.390;2023-05-10T15:50:07;15.60;99.90
20998;DHT22;10657;51.276;6.390;2023-05-10T15:52:34;15.50;99.90
20998;DHT22;10657;51.276;6.390;2023-05-10T15:55:01;15.50;99.90
20998;DHT22;10657;51.276;6.390;2023-05-10T15:57:29;15.20;99.90
20998;DHT22;10657;51.276;6.390;2023-05-10T15:59:56;15.20;99.90
20998;DHT22;10657;51.276;6.390;2023-05-10T16:02:23;15.10;99.90
20998;DHT22;10657;51.276;6.390;2023-05-10T16:04:50;15.00;99.90
20998;DHT22;10657;51.276;6.390;2023-05-10T16:07:17;14.90;99.90
20998;DHT22;10657;51.276;6.390;2023-05-10T16:09:43;14.80;99.90
20998;DHT22;10657;51.276;6.390;2023-05-10T16:12:10;14.70;99.90
20998;DHT22;10657;51.276;6.390;2023-05-10T16:14:37;14.70;99.90
20998;DHT22;10657;51.276;6.390;2023-05-10T16:17:03;14.70;99.90
20998;DHT22;10657;51.276;6.390;2023-05-10T16:19:31;14.70;99.90
20998;DHT22;10657;51.276;6.390;2023-05-10T16:21:57;14.50;99.90
20998;DHT22;10657;51.276;6.390;2023-05-10T16:24:24;14.50;99.90